This is the latest recevied weather packets stored in our database for station/object KD7DVD-1. If no packets are shown the sender has not sent any weather packets the latest 10 day(s).
| Time | Temp. | Humidity | Pressure | Rain* | Wind** | Luminosity | Snow |
|---|---|---|---|---|---|---|---|
| 1777663816 | 18.89° C | 60% | 1015.5 hPa | 0 mm | - | - | - |
| 1777662016 | 18.89° C | 58% | 1015.7 hPa | 0 mm | - | - | - |
| 1777660216 | 17.78° C | 63% | 1015.9 hPa | 0 mm | - | - | - |
| 1777658416 | 17.22° C | 65% | 1016.1 hPa | 0 mm | - | - | - |
| 1777656616 | 16.67° C | 64% | 1016.4 hPa | 0 mm | - | - | - |
| 1777654816 | 16.11° C | 65% | 1016.5 hPa | 0 mm | - | - | - |
| 1777653015 | 15.56° C | 67% | 1016.8 hPa | 0 mm | - | - | - |
| 1777651215 | 15° C | 69% | 1016.9 hPa | 0 mm | - | - | - |
| 1777649417 | 15.56° C | 73% | 1016.9 hPa | 0 mm | - | - | - |
| 1777647617 | 15° C | 79% | 1016.8 hPa | 0 mm | - | - | - |
| 1777645816 | 12.22° C | 87% | 1016.7 hPa | 0 mm | - | - | - |
| 1777644017 | 11.11° C | 87% | 1016.4 hPa | 0 mm | - | - | - |
| 1777642217 | 10.56° C | 88% | 1016.2 hPa | 0 mm | - | - | - |
| 1777640417 | 10.56° C | 86% | 1016.2 hPa | 0 mm | - | - | - |
| 1777638617 | 11.11° C | 85% | 1016 hPa | 0 mm | - | - | - |
| 1777636817 | 11.67° C | 84% | 1016 hPa | 0 mm | - | - | - |
| 1777635017 | 12.22° C | 82% | 1015.9 hPa | 0 mm | - | - | - |
| 1777633217 | 13.33° C | 78% | 1015.7 hPa | 0 mm | - | - | - |
| 1777631417 | 13.33° C | 78% | 1015.7 hPa | 0 mm | - | - | - |
| 1777629617 | 12.78° C | 79% | 1015.6 hPa | 0 mm | - | - | - |
| 1777627817 | 13.33° C | 78% | 1015.6 hPa | 0 mm | - | - | - |
| 1777626016 | 13.33° C | 77% | 1015.6 hPa | 0 mm | - | - | - |
| 1777624216 | 13.33° C | 77% | 1015.9 hPa | 0 mm | - | - | - |
| 1777622416 | 13.89° C | 79% | 1015.9 hPa | 0 mm | - | - | - |
| 1777620616 | 14.44° C | 80% | 1016 hPa | 0 mm | - | - | - |
* Rain latest hour (hover to see other rain measurements)
** Current wind speed in m/s (hover to see current wind gust speed)